Time;durP1;ratioP1;P1;durP2;ratioP2;P2;SDS_P1;SDS_P2;PMS_P1;PMS_P2;Temp;Humidity;BMP_temperature;BMP_pressure;BME280_temperature;BME280_humidity;BME280_pressure;Samples;Min_cycle;Max_cycle;Signal;HPM_P1;HPM_P2
2023/10/29 00:01:59;;;;;;;;;;;19.90;58.00;;;;;;1554614;75;1098;-64
2023/10/29 00:04:01;;;;;;;;;;;19.90;58.00;;;;;;1554101;75;743;-64
2023/10/29 00:06:03;;;;;;;;;;;20.00;58.00;;;;;;1551456;75;1572;-64
2023/10/29 00:08:05;;;;;;;;;;;19.90;58.00;;;;;;1553506;75;675;-64
2023/10/29 00:10:08;;;;;;;;;;;20.00;58.00;;;;;;1554428;75;713;-64
2023/10/29 00:12:10;;;;;;;;;;;19.90;58.10;;;;;;1554425;75;1148;-64
2023/10/29 00:14:11;;;;;;;;;;;19.90;58.10;;;;;;1554578;75;782;-64
2023/10/29 00:16:13;;;;;;;;;;;19.90;58.00;;;;;;1552717;75;678;-64
2023/10/29 00:18:16;;;;;;;;;;;19.90;58.00;;;;;;1556897;75;1943;-64
2023/10/29 00:20:18;;;;;;;;;;;19.90;58.00;;;;;;1546220;75;1220;-64
2023/10/29 00:22:20;;;;;;;;;;;19.90;58.00;;;;;;1559150;74;1121;-64
2023/10/29 00:24:22;;;;;;;;;;;19.90;58.00;;;;;;1561201;75;746;-64
2023/10/29 00:26:24;;;;;;;;;;;20.00;58.10;;;;;;1552984;75;634;-64
2023/10/29 00:28:26;;;;;;;;;;;19.90;58.00;;;;;;1556241;75;1061;-64
2023/10/29 00:30:28;;;;;;;;;;;19.90;58.00;;;;;;1548543;75;762;-64
2023/10/29 00:32:30;;;;;;;;;;;19.90;58.00;;;;;;1553726;75;1129;-63
2023/10/29 00:34:31;;;;;;;;;;;19.90;58.00;;;;;;1554327;75;1327;-63
2023/10/29 00:36:33;;;;;;;;;;;19.90;58.10;;;;;;1556688;75;682;-63
2023/10/29 00:38:35;;;;;;;;;;;19.90;58.10;;;;;;1553142;75;1925;-63
2023/10/29 00:40:40;;;;;;;;;;;19.90;58.10;;;;;;1551114;75;757;-62
2023/10/29 00:42:42;;;;;;;;;;;20.00;58.00;;;;;;1553541;75;1209;-62
2023/10/29 00:44:43;;;;;;;;;;;19.90;58.00;;;;;;1551853;75;728;-61
2023/10/29 00:46:45;;;;;;;;;;;19.90;58.00;;;;;;1554977;75;729;-62
2023/10/29 00:48:50;;;;;;;;;;;19.90;58.00;;;;;;1551040;75;1208;-63
2023/10/29 00:50:52;;;;;;;;;;;19.90;58.00;;;;;;1553510;75;739;-62
2023/10/29 00:52:54;;;;;;;;;;;19.90;58.00;;;;;;1548705;75;1122;-62
2023/10/29 00:54:56;;;;;;;;;;;19.90;58.00;;;;;;1552206;75;834;-61
2023/10/29 00:56:58;;;;;;;;;;;19.90;58.00;;;;;;1556510;75;724;-62
2023/10/29 00:59:00;;;;;;;;;;;19.90;58.00;;;;;;1555051;75;1947;-62
2023/10/29 01:01:02;;;;;;;;;;;20.00;58.00;;;;;;1552081;75;820;-63
2023/10/29 01:03:04;;;;;;;;;;;19.90;58.00;;;;;;1553542;75;1555;-63
2023/10/29 01:05:06;;;;;;;;;;;19.90;58.00;;;;;;1556166;75;779;-63
2023/10/29 01:07:08;;;;;;;;;;;19.90;58.00;;;;;;1554687;75;694;-63
2023/10/29 01:09:10;;;;;;;;;;;20.00;58.00;;;;;;1550939;75;753;-63
2023/10/29 01:11:12;;;;;;;;;;;19.90;58.00;;;;;;1556587;75;1102;-63
2023/10/29 01:13:13;;;;;;;;;;;19.90;58.00;;;;;;1559172;75;696;-62
2023/10/29 01:15:15;;;;;;;;;;;19.90;58.00;;;;;;1547470;75;682;-63
2023/10/29 01:17:17;;;;;;;;;;;19.90;58.00;;;;;;1554070;75;1532;-62
2023/10/29 01:19:19;;;;;;;;;;;19.90;58.00;;;;;;1556165;75;1952;-63
2023/10/29 01:21:21;;;;;;;;;;;19.90;58.00;;;;;;1555026;75;1154;-64
2023/10/29 01:23:23;;;;;;;;;;;19.90;58.00;;;;;;1552107;75;721;-63
2023/10/29 01:25:25;;;;;;;;;;;19.90;57.90;;;;;;1554488;75;699;-63
2023/10/29 01:27:27;;;;;;;;;;;19.90;58.00;;;;;;1557632;75;607;-63
2023/10/29 01:29:29;;;;;;;;;;;19.90;58.00;;;;;;1548559;75;720;-62
2023/10/29 01:31:31;;;;;;;;;;;19.90;57.90;;;;;;1545615;75;1299;-62
2023/10/29 01:33:33;;;;;;;;;;;19.90;57.90;;;;;;1556438;75;762;-63
2023/10/29 01:35:35;;;;;;;;;;;19.90;57.90;;;;;;1553619;75;751;-63
2023/10/29 01:37:36;;;;;;;;;;;20.00;58.00;;;;;;1547892;75;1932;-63
2023/10/29 01:39:38;;;;;;;;;;;19.90;57.90;;;;;;1548633;75;777;-63
2023/10/29 01:41:40;;;;;;;;;;;19.90;57.90;;;;;;1550034;75;1200;-62
2023/10/29 01:43:42;;;;;;;;;;;19.90;57.90;;;;;;1546215;75;705;-63
2023/10/29 01:45:44;;;;;;;;;;;19.90;57.90;;;;;;1555173;75;1517;-63
2023/10/29 01:47:46;;;;;;;;;;;19.90;58.00;;;;;;1551778;75;780;-63
2023/10/29 01:49:48;;;;;;;;;;;19.90;57.90;;;;;;1541475;75;882;-63
2023/10/29 01:51:50;;;;;;;;;;;19.90;57.90;;;;;;1547152;75;1156;-63
2023/10/29 01:53:52;;;;;;;;;;;19.90;57.90;;;;;;1555873;75;699;-64
2023/10/29 01:55:54;;;;;;;;;;;19.90;57.90;;;;;;1553095;75;786;-62
2023/10/29 01:57:56;;;;;;;;;;;19.90;57.90;;;;;;1553636;75;1943;-63
2023/10/29 01:59:59;;;;;;;;;;;19.90;57.90;;;;;;1553579;75;1577;-63
2023/10/29 02:02:01;;;;;;;;;;;19.90;57.90;;;;;;1546510;75;1088;-62
2023/10/29 02:04:03;;;;;;;;;;;19.90;58.00;;;;;;1555874;75;726;-63
2023/10/29 02:06:05;;;;;;;;;;;19.90;58.00;;;;;;1547122;75;788;-64
2023/10/29 02:08:07;;;;;;;;;;;19.90;57.90;;;;;;1549255;75;672;-63
2023/10/29 02:10:09;;;;;;;;;;;19.90;57.90;;;;;;1549345;75;770;-63
2023/10/29 02:12:11;;;;;;;;;;;20.00;58.00;;;;;;1555331;75;1153;-63
2023/10/29 02:14:12;;;;;;;;;;;19.90;58.00;;;;;;1555080;75;1513;-62
2023/10/29 02:16:14;;;;;;;;;;;19.90;57.90;;;;;;1556782;75;683;-61
2023/10/29 02:18:17;;;;;;;;;;;19.90;57.90;;;;;;1543830;75;1942;-62
2023/10/29 02:20:19;;;;;;;;;;;19.90;57.90;;;;;;1551674;75;720;-63
2023/10/29 02:22:21;;;;;;;;;;;19.90;57.90;;;;;;1548912;74;1155;-63
2023/10/29 02:24:23;;;;;;;;;;;19.90;58.00;;;;;;1557964;75;701;-62
2023/10/29 02:26:25;;;;;;;;;;;19.90;58.00;;;;;;1556795;75;669;-62
2023/10/29 02:28:26;;;;;;;;;;;20.10;58.00;;;;;;1551772;75;1646;-62
2023/10/29 02:30:28;;;;;;;;;;;19.90;58.00;;;;;;1555138;75;779;-62
2023/10/29 02:32:30;;;;;;;;;;;19.90;57.90;;;;;;1550246;75;1169;-62
2023/10/29 02:34:32;;;;;;;;;;;19.90;57.90;;;;;;1550616;75;768;-63
2023/10/29 02:36:34;;;;;;;;;;;19.90;57.90;;;;;;1551578;75;844;-61
2023/10/29 02:38:37;;;;;;;;;;;19.90;57.90;;;;;;1552700;75;1954;-62
2023/10/29 02:40:39;;;;;;;;;;;19.90;57.90;;;;;;1548016;75;1488;-63
2023/10/29 02:42:41;;;;;;;;;;;19.90;57.90;;;;;;1552608;75;1255;-63
2023/10/29 02:44:42;;;;;;;;;;;19.90;57.90;;;;;;1550891;75;789;-62
2023/10/29 02:46:44;;;;;;;;;;;19.90;57.90;;;;;;1553597;75;708;-63
2023/10/29 02:48:46;;;;;;;;;;;19.90;57.90;;;;;;1553609;75;726;-62
2023/10/29 02:50:48;;;;;;;;;;;19.90;57.90;;;;;;1545945;75;707;-63
2023/10/29 02:52:50;;;;;;;;;;;19.90;57.90;;;;;;1546040;75;1091;-63
2023/10/29 02:54:52;;;;;;;;;;;19.90;57.90;;;;;;1542937;75;1563;-63
2023/10/29 02:56:54;;;;;;;;;;;19.90;57.90;;;;;;1548936;75;682;-63
2023/10/29 02:58:55;;;;;;;;;;;19.90;57.90;;;;;;1552292;75;1947;-63
2023/10/29 03:01:07;;;;;;;;;;;19.90;57.90;;;;;;1549912;75;655;-62
2023/10/29 03:03:09;;;;;;;;;;;19.90;57.90;;;;;;1554262;75;680;-63
2023/10/29 03:05:11;;;;;;;;;;;19.90;57.90;;;;;;1552501;75;753;-64
2023/10/29 03:07:14;;;;;;;;;;;19.90;57.90;;;;;;1552395;75;811;-63
2023/10/29 03:09:16;;;;;;;;;;;19.90;57.90;;;;;;1557504;75;1442;-62
2023/10/29 03:11:17;;;;;;;;;;;19.90;57.90;;;;;;1556204;75;1146;-63
2023/10/29 03:13:19;;;;;;;;;;;19.90;57.90;;;;;;1555593;75;721;-60
2023/10/29 03:15:21;;;;;;;;;;;19.90;57.90;;;;;;1553765;75;763;-63
2023/10/29 03:17:23;;;;;;;;;;;19.90;57.90;;;;;;1549667;75;721;-62
2023/10/29 03:19:25;;;;;;;;;;;19.90;57.90;;;;;;1547136;75;1928;-61
2023/10/29 03:21:27;;;;;;;;;;;19.90;57.90;;;;;;1551399;75;1145;-63
2023/10/29 03:23:29;;;;;;;;;;;19.90;57.90;;;;;;1552950;75;1581;-61
2023/10/29 03:25:31;;;;;;;;;;;19.90;57.90;;;;;;1551018;75;750;-62
2023/10/29 03:27:33;;;;;;;;;;;19.90;58.00;;;;;;1550976;75;738;-62
2023/10/29 03:29:35;;;;;;;;;;;19.90;58.00;;;;;;1553711;75;757;-63
2023/10/29 03:31:38;;;;;;;;;;;19.90;58.00;;;;;;1551010;75;1150;-63
2023/10/29 03:33:39;;;;;;;;;;;19.90;58.00;;;;;;1546827;75;792;-61
2023/10/29 03:35:42;;;;;;;;;;;19.90;58.00;;;;;;1556616;75;718;-62
2023/10/29 03:37:43;;;;;;;;;;;19.90;58.00;;;;;;1556105;75;1550;-63
2023/10/29 03:39:45;;;;;;;;;;;19.90;58.00;;;;;;1550890;75;1924;-62
2023/10/29 03:41:47;;;;;;;;;;;19.90;58.00;;;;;;1555353;75;1179;-62
2023/10/29 03:43:49;;;;;;;;;;;19.90;58.00;;;;;;1556082;75;722;-62
2023/10/29 03:45:51;;;;;;;;;;;19.90;58.00;;;;;;1548042;75;735;-62
2023/10/29 03:47:53;;;;;;;;;;;19.90;58.00;;;;;;1552762;75;751;-62
2023/10/29 03:49:55;;;;;;;;;;;19.90;58.00;;;;;;1554777;75;669;-61
2023/10/29 03:51:57;;;;;;;;;;;19.90;58.00;;;;;;1554469;75;1562;-62
2023/10/29 03:53:59;;;;;;;;;;;19.90;58.10;;;;;;1547892;75;798;-63
2023/10/29 03:56:01;;;;;;;;;;;19.90;58.10;;;;;;1551150;75;725;-63
2023/10/29 03:58:04;;;;;;;;;;;19.90;58.10;;;;;;1550498;75;856;-62
2023/10/29 04:00:07;;;;;;;;;;;19.90;58.10;;;;;;1556638;75;1911;-63
2023/10/29 04:02:09;;;;;;;;;;;19.90;58.10;;;;;;1548845;75;1173;-63
2023/10/29 04:04:10;;;;;;;;;;;19.90;58.10;;;;;;1555316;75;935;-62
2023/10/29 04:06:12;;;;;;;;;;;19.90;58.00;;;;;;1546742;75;1585;-63
2023/10/29 04:08:16;;;;;;;;;;;19.90;58.00;;;;;;1564158;75;791;-62
2023/10/29 04:10:18;;;;;;;;;;;19.90;58.00;;;;;;1551548;74;1653;-63
2023/10/29 04:12:20;;;;;;;;;;;19.90;58.00;;;;;;1554732;75;1133;-63
2023/10/29 04:14:21;;;;;;;;;;;19.90;58.00;;;;;;1554154;75;748;-63
2023/10/29 04:16:23;;;;;;;;;;;19.90;58.00;;;;;;1562284;75;695;-64
2023/10/29 04:18:27;;;;;;;;;;;19.90;58.00;;;;;;1547927;75;766;-62
2023/10/29 04:20:29;;;;;;;;;;;19.90;58.00;;;;;;1546969;75;1935;-62
2023/10/29 04:22:31;;;;;;;;;;;19.90;58.00;;;;;;1551774;75;1192;-63
2023/10/29 04:24:33;;;;;;;;;;;19.90;58.00;;;;;;1552215;75;807;-62
2023/10/29 04:26:35;;;;;;;;;;;19.90;58.00;;;;;;1549263;75;730;-63
2023/10/29 04:28:37;;;;;;;;;;;19.90;58.00;;;;;;1552034;75;809;-63
2023/10/29 04:30:39;;;;;;;;;;;19.90;58.00;;;;;;1551763;75;994;-63
2023/10/29 04:32:40;;;;;;;;;;;19.90;58.00;;;;;;1555421;75;1143;-63
2023/10/29 04:34:42;;;;;;;;;;;19.90;58.00;;;;;;1549132;75;1542;-62
2023/10/29 04:36:48;;;;;;;;;;;19.90;58.00;;;;;;1548805;75;724;-63
2023/10/29 04:38:48;;;;;;;;;;;19.90;58.00;;;;;;1554014;75;1936;-63
2023/10/29 04:40:51;;;;;;;;;;;19.90;58.00;;;;;;1553146;75;794;-63
2023/10/29 04:42:53;;;;;;;;;;;19.90;58.00;;;;;;1549843;75;1157;-63
2023/10/29 04:44:55;;;;;;;;;;;19.90;58.00;;;;;;1554770;75;771;-63
2023/10/29 04:46:57;;;;;;;;;;;19.90;58.00;;;;;;1549080;75;703;-61
2023/10/29 04:48:59;;;;;;;;;;;19.90;58.00;;;;;;1544178;75;1650;-62
2023/10/29 04:51:01;;;;;;;;;;;19.90;58.00;;;;;;1554055;75;703;-63
2023/10/29 04:53:03;;;;;;;;;;;19.90;58.00;;;;;;1552221;75;1181;-63
2023/10/29 04:55:05;;;;;;;;;;;19.90;58.00;;;;;;1557456;75;671;-63
2023/10/29 04:57:07;;;;;;;;;;;19.80;57.90;;;;;;1549131;75;823;-63
2023/10/29 04:59:09;;;;;;;;;;;19.90;58.00;;;;;;1551108;75;1941;-63
2023/10/29 05:01:11;;;;;;;;;;;19.90;58.00;;;;;;1550131;75;1544;-63
2023/10/29 05:03:13;;;;;;;;;;;19.90;58.00;;;;;;1550310;75;773;-62
2023/10/29 05:05:15;;;;;;;;;;;19.90;58.00;;;;;;1550833;75;754;-63
2023/10/29 05:07:17;;;;;;;;;;;19.90;58.00;;;;;;1547678;75;803;-63
2023/10/29 05:09:18;;;;;;;;;;;19.90;58.00;;;;;;1557092;75;797;-63
2023/10/29 05:11:20;;;;;;;;;;;19.90;58.00;;;;;;1557073;75;1104;-64
2023/10/29 05:13:22;;;;;;;;;;;19.90;58.00;;;;;;1553083;75;761;-61
2023/10/29 05:15:24;;;;;;;;;;;19.90;58.00;;;;;;1554681;75;1546;-62
2023/10/29 05:17:27;;;;;;;;;;;19.90;58.00;;;;;;1555251;75;774;-62
2023/10/29 05:19:29;;;;;;;;;;;19.90;58.00;;;;;;1547457;75;1937;-62
2023/10/29 05:21:31;;;;;;;;;;;19.90;58.00;;;;;;1551693;75;1141;-63
2023/10/29 05:23:33;;;;;;;;;;;19.90;58.00;;;;;;1551425;75;736;-63
2023/10/29 05:25:36;;;;;;;;;;;19.90;58.00;;;;;;1563094;75;726;-62
2023/10/29 05:27:38;;;;;;;;;;;19.90;58.00;;;;;;1557255;75;720;-63
2023/10/29 05:29:40;;;;;;;;;;;19.80;57.90;;;;;;1550943;75;1529;-62
2023/10/29 05:31:42;;;;;;;;;;;19.90;58.00;;;;;;1548420;75;1130;-62
2023/10/29 05:33:44;;;;;;;;;;;20.00;58.00;;;;;;1547618;75;757;-63
2023/10/29 05:35:45;;;;;;;;;;;19.90;58.00;;;;;;1556582;75;723;-63
2023/10/29 05:37:47;;;;;;;;;;;19.90;58.00;;;;;;1553719;75;685;-62
2023/10/29 05:39:49;;;;;;;;;;;19.90;58.00;;;;;;1550099;75;1905;-63
2023/10/29 05:41:51;;;;;;;;;;;19.90;58.00;;;;;;1552687;75;1149;-61
2023/10/29 05:43:53;;;;;;;;;;;20.10;58.10;;;;;;1554199;75;1228;-63
2023/10/29 05:45:55;;;;;;;;;;;19.90;58.00;;;;;;1553941;75;783;-63
2023/10/29 05:47:58;;;;;;;;;;;19.90;58.00;;;;;;1551448;75;732;-63
2023/10/29 05:50:00;;;;;;;;;;;19.90;58.00;;;;;;1554041;75;777;-62
2023/10/29 05:52:02;;;;;;;;;;;19.90;58.00;;;;;;1554037;75;1181;-62
2023/10/29 05:54:04;;;;;;;;;;;19.90;58.00;;;;;;1549517;75;727;-62
2023/10/29 05:56:06;;;;;;;;;;;19.90;58.00;;;;;;1551885;75;685;-62
2023/10/29 05:58:08;;;;;;;;;;;19.90;58.00;;;;;;1546741;75;1551;-64
2023/10/29 06:00:11;;;;;;;;;;;19.90;58.00;;;;;;1553529;75;1937;-63
2023/10/29 06:02:13;;;;;;;;;;;19.90;58.00;;;;;;1556110;75;1156;-61
2023/10/29 06:04:14;;;;;;;;;;;19.90;58.00;;;;;;1551477;75;729;-63
2023/10/29 06:06:16;;;;;;;;;;;19.90;58.00;;;;;;1551612;75;818;-63
2023/10/29 06:08:18;;;;;;;;;;;19.90;58.00;;;;;;1559183;75;700;-63
2023/10/29 06:10:20;;;;;;;;;;;19.90;58.00;;;;;;1549306;75;722;-62
2023/10/29 06:12:22;;;;;;;;;;;19.90;58.00;;;;;;1547579;75;1401;-63
2023/10/29 06:14:24;;;;;;;;;;;19.90;58.00;;;;;;1551244;75;717;-62
2023/10/29 06:16:26;;;;;;;;;;;19.90;58.00;;;;;;1558760;75;695;-62
2023/10/29 06:18:28;;;;;;;;;;;20.00;58.00;;;;;;1543677;75;826;-62
2023/10/29 06:20:29;;;;;;;;;;;19.90;58.00;;;;;;1550408;75;1941;-63
2023/10/29 06:22:32;;;;;;;;;;;19.90;58.00;;;;;;1556006;75;1144;-62
2023/10/29 06:24:34;;;;;;;;;;;19.90;58.00;;;;;;1551845;75;777;-64
2023/10/29 06:26:36;;;;;;;;;;;19.90;57.90;;;;;;1551144;75;1509;-63
2023/10/29 06:28:38;;;;;;;;;;;19.90;58.00;;;;;;1551056;75;947;-63
2023/10/29 06:30:40;;;;;;;;;;;19.90;58.00;;;;;;1553233;75;728;-63
2023/10/29 06:32:42;;;;;;;;;;;19.90;58.00;;;;;;1553627;75;1125;-63
2023/10/29 06:34:44;;;;;;;;;;;19.90;58.00;;;;;;1548216;75;703;-63
2023/10/29 06:36:46;;;;;;;;;;;19.90;58.00;;;;;;1549406;75;671;-63
2023/10/29 06:38:48;;;;;;;;;;;19.80;57.90;;;;;;1549304;75;730;-63
2023/10/29 06:40:49;;;;;;;;;;;19.90;57.90;;;;;;1549090;75;1935;-61
2023/10/29 06:42:51;;;;;;;;;;;20.00;57.90;;;;;;1555172;75;1144;-62
2023/10/29 06:44:53;;;;;;;;;;;19.90;57.90;;;;;;1551126;75;725;-62
2023/10/29 06:46:55;;;;;;;;;;;19.90;57.90;;;;;;1555216;75;693;-62
2023/10/29 06:48:58;;;;;;;;;;;20.00;57.90;;;;;;1546651;75;750;-62
2023/10/29 06:51:00;;;;;;;;;;;19.90;57.90;;;;;;1552608;75;721;-63
2023/10/29 06:53:02;;;;;;;;;;;19.90;57.90;;;;;;1546228;75;1179;-63
2023/10/29 06:55:04;;;;;;;;;;;19.90;57.90;;;;;;1551692;75;1577;-63
2023/10/29 06:57:06;;;;;;;;;;;19.90;57.90;;;;;;1548311;75;611;-63
2023/10/29 06:59:07;;;;;;;;;;;19.90;57.90;;;;;;1551567;75;711;-63
2023/10/29 07:01:09;;;;;;;;;;;19.90;57.90;;;;;;1554966;75;1945;-63
2023/10/29 07:03:11;;;;;;;;;;;19.90;57.90;;;;;;1555288;75;744;-63
2023/10/29 07:05:13;;;;;;;;;;;19.90;57.90;;;;;;1555334;75;738;-62
2023/10/29 07:07:15;;;;;;;;;;;19.90;57.90;;;;;;1547609;75;905;-63
2023/10/29 07:09:18;;;;;;;;;;;19.90;57.90;;;;;;1553998;75;1594;-62
2023/10/29 07:11:20;;;;;;;;;;;19.90;57.90;;;;;;1555478;75;1210;-62
2023/10/29 07:13:22;;;;;;;;;;;19.90;57.90;;;;;;1556678;75;740;-61
2023/10/29 07:15:23;;;;;;;;;;;19.90;57.90;;;;;;1546014;75;956;-63
2023/10/29 07:17:25;;;;;;;;;;;19.90;57.90;;;;;;1555954;75;746;-62
2023/10/29 07:19:27;;;;;;;;;;;19.90;57.90;;;;;;1547267;75;720;-63
2023/10/29 07:21:29;;;;;;;;;;;19.90;57.90;;;;;;1552892;75;1948;-61
2023/10/29 07:23:31;;;;;;;;;;;19.90;57.90;;;;;;1545078;75;1713;-63
2023/10/29 07:25:34;;;;;;;;;;;19.90;57.90;;;;;;1555432;75;677;-62
2023/10/29 07:27:35;;;;;;;;;;;19.90;57.90;;;;;;1552540;75;776;-63
2023/10/29 07:29:37;;;;;;;;;;;19.90;57.90;;;;;;1552250;75;766;-62
2023/10/29 07:31:39;;;;;;;;;;;19.90;57.90;;;;;;1551461;75;1220;-63
2023/10/29 07:33:41;;;;;;;;;;;19.90;57.90;;;;;;1555963;75;694;-62
2023/10/29 07:35:43;;;;;;;;;;;20.10;58.00;;;;;;1552956;75;722;-62
2023/10/29 07:37:45;;;;;;;;;;;19.80;57.80;;;;;;1554054;75;1550;-63
2023/10/29 07:39:47;;;;;;;;;;;20.00;57.90;;;;;;1554553;75;1917;-63
2023/10/29 07:41:49;;;;;;;;;;;19.90;57.90;;;;;;1545412;75;1166;-61
2023/10/29 07:43:51;;;;;;;;;;;19.90;57.90;;;;;;1555798;75;705;-63
2023/10/29 07:45:52;;;;;;;;;;;19.90;57.80;;;;;;1562552;75;689;-61
2023/10/29 07:47:54;;;;;;;;;;;19.90;57.90;;;;;;1542268;75;757;-63
2023/10/29 07:49:56;;;;;;;;;;;19.90;57.90;;;;;;1545083;75;1529;-62
2023/10/29 07:51:58;;;;;;;;;;;19.90;57.90;;;;;;1556445;75;1181;-62
2023/10/29 07:54:00;;;;;;;;;;;20.00;57.80;;;;;;1555902;75;750;-63
2023/10/29 07:56:08;;;;;;;;;;;19.90;57.80;;;;;;1559692;75;733;-62
2023/10/29 07:58:10;;;;;;;;;;;19.90;57.80;;;;;;1546614;75;748;-63
2023/10/29 08:00:16;;;;;;;;;;;19.90;57.90;;;;;;1554914;75;1911;-63
2023/10/29 08:02:17;;;;;;;;;;;19.90;57.90;;;;;;1549666;75;1110;-62
2023/10/29 08:04:19;;;;;;;;;;;19.90;57.90;;;;;;1553820;75;1344;-62
2023/10/29 08:06:21;;;;;;;;;;;20.10;58.00;;;;;;1555414;75;751;-63
2023/10/29 08:08:23;;;;;;;;;;;19.90;57.80;;;;;;1547942;75;782;-63
2023/10/29 08:10:25;;;;;;;;;;;19.90;57.80;;;;;;1549078;75;731;-62
2023/10/29 08:12:29;;;;;;;;;;;19.90;57.80;;;;;;1556315;75;1149;-63
2023/10/29 08:14:31;;;;;;;;;;;19.90;57.80;;;;;;1554838;75;719;-63
2023/10/29 08:16:33;;;;;;;;;;;19.90;57.80;;;;;;1550703;75;772;-63
2023/10/29 08:18:35;;;;;;;;;;;19.90;57.80;;;;;;1556920;75;1543;-63
2023/10/29 08:20:36;;;;;;;;;;;19.90;57.80;;;;;;1549279;75;1932;-61
2023/10/29 08:22:38;;;;;;;;;;;20.00;57.80;;;;;;1548810;75;1153;-63
2023/10/29 08:24:40;;;;;;;;;;;19.90;57.80;;;;;;1550587;75;721;-63
2023/10/29 08:26:42;;;;;;;;;;;20.00;57.80;;;;;;1558032;75;801;-62
2023/10/29 08:28:44;;;;;;;;;;;19.90;57.80;;;;;;1556029;75;725;-62
2023/10/29 08:30:49;;;;;;;;;;;19.90;57.80;;;;;;1558296;75;782;-62
2023/10/29 08:32:51;;;;;;;;;;;19.90;57.80;;;;;;1555689;75;1517;-63
2023/10/29 08:34:53;;;;;;;;;;;19.90;57.80;;;;;;1550988;75;702;-62
2023/10/29 08:36:55;;;;;;;;;;;20.00;57.80;;;;;;1552336;75;662;-62
2023/10/29 08:38:57;;;;;;;;;;;19.80;57.70;;;;;;1553260;75;714;-62
2023/10/29 08:40:59;;;;;;;;;;;19.90;57.80;;;;;;1549834;75;1957;-62
2023/10/29 08:43:03;;;;;;;;;;;19.90;57.80;;;;;;1553050;75;1129;-63
2023/10/29 08:45:05;;;;;;;;;;;19.90;57.80;;;;;;1547848;75;767;-61
2023/10/29 08:47:07;;;;;;;;;;;19.90;57.80;;;;;;1554105;75;1588;-62
2023/10/29 08:49:09;;;;;;;;;;;19.90;57.70;;;;;;1556407;75;793;-62
2023/10/29 08:51:14;;;;;;;;;;;19.90;57.70;;;;;;1549281;75;1188;-62
2023/10/29 08:53:15;;;;;;;;;;;20.00;57.70;;;;;;1552970;75;1660;-63
2023/10/29 08:55:17;;;;;;;;;;;19.90;57.80;;;;;;1550448;75;824;-63
2023/10/29 08:57:19;;;;;;;;;;;19.90;57.80;;;;;;1553784;75;767;-63
2023/10/29 08:59:21;;;;;;;;;;;19.90;57.70;;;;;;1552744;75;734;-62
2023/10/29 09:01:23;;;;;;;;;;;19.90;57.20;;;;;;1546281;75;1916;-61
2023/10/29 09:03:25;;;;;;;;;;;19.90;57.70;;;;;;1554930;75;703;-62
2023/10/29 09:05:27;;;;;;;;;;;19.90;57.70;;;;;;1555689;75;753;-63
2023/10/29 09:07:29;;;;;;;;;;;19.90;57.20;;;;;;1560723;75;752;-63
2023/10/29 09:09:31;;;;;;;;;;;19.90;57.20;;;;;;1552746;75;735;-63
2023/10/29 09:11:33;;;;;;;;;;;19.90;57.70;;;;;;1555249;75;1174;-63
2023/10/29 09:13:35;;;;;;;;;;;19.90;57.70;;;;;;1549307;75;719;-62
2023/10/29 09:15:37;;;;;;;;;;;20.00;57.70;;;;;;1551353;75;1531;-63
2023/10/29 09:17:39;;;;;;;;;;;19.90;57.70;;;;;;1555883;75;705;-62
2023/10/29 09:19:41;;;;;;;;;;;19.90;57.70;;;;;;1554026;75;770;-62
2023/10/29 09:21:44;;;;;;;;;;;19.90;57.10;;;;;;1556288;75;1939;-62
2023/10/29 09:23:46;;;;;;;;;;;20.00;57.10;;;;;;1550922;75;709;-62
2023/10/29 09:25:48;;;;;;;;;;;19.90;57.10;;;;;;1542373;75;672;-62
2023/10/29 09:27:50;;;;;;;;;;;20.00;57.10;;;;;;1547588;75;685;-62
2023/10/29 09:29:52;;;;;;;;;;;19.90;57.20;;;;;;1553955;75;1507;-63
2023/10/29 09:31:54;;;;;;;;;;;20.00;57.20;;;;;;1551858;75;1146;-61
2023/10/29 09:33:56;;;;;;;;;;;20.00;57.10;;;;;;1541497;75;733;-62
2023/10/29 09:35:58;;;;;;;;;;;20.00;57.10;;;;;;1553135;75;872;-62
2023/10/29 09:37:59;;;;;;;;;;;19.90;57.10;;;;;;1554636;75;738;-61
2023/10/29 09:40:02;;;;;;;;;;;20.00;57.10;;;;;;1555013;75;760;-63
2023/10/29 09:42:08;;;;;;;;;;;20.00;57.10;;;;;;1555113;75;1897;-63
2023/10/29 09:44:08;;;;;;;;;;;19.90;57.10;;;;;;1545756;75;1362;-62
2023/10/29 09:46:10;;;;;;;;;;;19.90;57.10;;;;;;1550050;75;739;-63
2023/10/29 09:48:15;;;;;;;;;;;20.00;57.10;;;;;;1544363;75;792;-62
2023/10/29 09:50:17;;;;;;;;;;;20.00;57.10;;;;;;1545499;75;845;-64
2023/10/29 09:52:19;;;;;;;;;;;20.00;57.10;;;;;;1545088;75;1169;-63
2023/10/29 09:54:21;;;;;;;;;;;20.00;57.20;;;;;;1552908;75;687;-62
2023/10/29 09:56:23;;;;;;;;;;;19.90;57.10;;;;;;1542511;75;788;-62
2023/10/29 09:58:26;;;;;;;;;;;19.90;57.10;;;;;;1532087;76;1742;-63
2023/10/29 10:00:28;;;;;;;;;;;20.00;57.10;;;;;;1530955;76;745;-62
2023/10/29 10:02:30;;;;;;;;;;;20.00;57.10;;;;;;1522071;76;1956;-63
2023/10/29 10:04:32;;;;;;;;;;;20.00;57.10;;;;;;1530397;76;782;-63
2023/10/29 10:06:33;;;;;;;;;;;19.90;57.10;;;;;;1525678;76;787;-63
2023/10/29 10:08:35;;;;;;;;;;;20.00;57.10;;;;;;1525076;76;784;-63
2023/10/29 10:10:40;;;;;;;;;;;20.00;57.10;;;;;;1523635;76;1536;-62
2023/10/29 10:12:46;;;;;;;;;;;20.00;57.10;;;;;;1526379;76;1170;-63
2023/10/29 10:14:49;;;;;;;;;;;19.90;57.10;;;;;;1556874;75;772;-62
2023/10/29 10:16:53;;;;;;;;;;;19.90;57.10;;;;;;1556968;75;756;-62
2023/10/29 10:18:58;;;;;;;;;;;19.90;57.10;;;;;;1553926;75;1268;-63
2023/10/29 10:21:00;;;;;;;;;;;19.90;57.10;;;;;;1550311;75;1925;-62
2023/10/29 10:23:02;;;;;;;;;;;19.90;57.10;;;;;;1545710;75;1130;-62
2023/10/29 10:25:04;;;;;;;;;;;19.90;57.10;;;;;;1550430;75;1556;-63
2023/10/29 10:27:06;;;;;;;;;;;19.90;57.00;;;;;;1548107;75;694;-63
2023/10/29 10:29:08;;;;;;;;;;;20.00;57.10;;;;;;1548456;75;607;-64
2023/10/29 10:31:12;;;;;;;;;;;19.90;57.10;;;;;;1550935;75;1141;-65
2023/10/29 10:33:14;;;;;;;;;;;19.90;57.00;;;;;;1553968;75;1016;-64
2023/10/29 10:35:16;;;;;;;;;;;19.90;57.10;;;;;;1548203;75;782;-63
2023/10/29 10:37:18;;;;;;;;;;;20.00;57.00;;;;;;1547081;75;716;-65
2023/10/29 10:39:23;;;;;;;;;;;19.90;57.10;;;;;;1548310;75;1578;-64
2023/10/29 10:41:24;;;;;;;;;;;20.00;57.10;;;;;;1540376;75;1931;-62
2023/10/29 10:43:27;;;;;;;;;;;19.90;57.00;;;;;;1547830;75;786;-62
2023/10/29 10:45:29;;;;;;;;;;;19.90;57.00;;;;;;1548413;75;706;-63
2023/10/29 10:47:31;;;;;;;;;;;20.00;57.00;;;;;;1551397;75;679;-62
2023/10/29 10:49:34;;;;;;;;;;;20.00;57.00;;;;;;1555929;75;804;-63
2023/10/29 10:51:36;;;;;;;;;;;20.00;57.10;;;;;;1550937;75;1160;-61
2023/10/29 10:53:39;;;;;;;;;;;20.00;57.00;;;;;;1551784;75;1473;-63
2023/10/29 10:55:40;;;;;;;;;;;20.00;57.10;;;;;;1551607;75;702;-63
2023/10/29 10:57:44;;;;;;;;;;;19.90;57.10;;;;;;1554675;75;627;-62
2023/10/29 10:59:45;;;;;;;;;;;19.90;57.10;;;;;;1551111;75;649;-63
2023/10/29 11:01:48;;;;;;;;;;;19.90;57.00;;;;;;1553466;75;1930;-63
2023/10/29 11:03:50;;;;;;;;;;;20.00;57.10;;;;;;1551395;75;733;-63
2023/10/29 11:05:52;;;;;;;;;;;20.00;57.10;;;;;;1546467;75;655;-65
2023/10/29 11:07:54;;;;;;;;;;;20.00;57.10;;;;;;1544786;75;1319;-62
2023/10/29 11:09:56;;;;;;;;;;;19.90;57.00;;;;;;1560292;72;219117;-79
2023/10/29 11:11:58;;;;;;;;;;;19.90;57.10;;;;;;1623278;72;1223;-78
2023/10/29 11:14:09;;;;;;;;;;;19.90;57.10;;;;;;1621067;72;741;-78
2023/10/29 11:16:26;;;;;;;;;;;19.90;57.00;;;;;;1621256;72;708;-78
2023/10/29 11:18:29;;;;;;;;;;;20.00;57.10;;;;;;1621230;71;680;-77
2023/10/29 11:20:49;;;;;;;;;;;19.90;57.10;;;;;;1599428;73;1174;-77
2023/10/29 11:22:51;;;;;;;;;;;20.00;57.10;;;;;;1592850;73;1929;-78
2023/10/29 11:25:03;;;;;;;;;;;19.90;57.00;;;;;;1567316;74;726;-78
2023/10/29 11:27:23;;;;;;;;;;;19.90;57.10;;;;;;1587813;73;951;-77
2023/10/29 11:29:36;;;;;;;;;;;19.90;57.00;;;;;;1594067;73;1131;-78
2023/10/29 11:31:37;;;;;;;;;;;20.00;57.00;;;;;;1592070;73;1030;-77
2023/10/29 11:33:40;;;;;;;;;;;20.00;57.00;;;;;;1595313;73;784;-77
2023/10/29 11:35:42;;;;;;;;;;;20.00;57.00;;;;;;1598797;73;1588;-78
2023/10/29 11:37:44;;;;;;;;;;;19.90;57.00;;;;;;1599898;73;744;-77
2023/10/29 11:39:46;;;;;;;;;;;20.00;57.00;;;;;;1588231;73;1087;-77
2023/10/29 11:41:48;;;;;;;;;;;20.00;57.00;;;;;;1589106;73;1942;-77
2023/10/29 11:43:52;;;;;;;;;;;19.90;57.00;;;;;;1600733;73;722;-78
2023/10/29 11:45:54;;;;;;;;;;;19.90;57.00;;;;;;1587188;73;1034;-77
2023/10/29 11:48:03;;;;;;;;;;;20.00;57.00;;;;;;1602704;73;735;-78
2023/10/29 11:50:07;;;;;;;;;;;20.00;57.10;;;;;;1595543;73;1622;-76
2023/10/29 11:52:09;;;;;;;;;;;20.00;57.10;;;;;;1586169;73;696;-78
2023/10/29 11:54:11;;;;;;;;;;;20.00;57.10;;;;;;1594189;73;673;-78
2023/10/29 11:56:13;;;;;;;;;;;19.90;57.10;;;;;;1600576;73;740;-77
2023/10/29 11:58:15;;;;;;;;;;;20.00;57.10;;;;;;1596573;73;691;-77
2023/10/29 12:00:17;;;;;;;;;;;19.90;57.00;;;;;;1563022;74;1175;-78
2023/10/29 12:02:19;;;;;;;;;;;19.90;57.00;;;;;;1590603;73;1901;-78
2023/10/29 12:04:21;;;;;;;;;;;20.00;57.10;;;;;;1597089;73;1557;-78
2023/10/29 12:06:24;;;;;;;;;;;20.00;57.10;;;;;;1600250;73;733;-76
2023/10/29 12:08:27;;;;;;;;;;;19.90;57.00;;;;;;1596816;73;899;-78
2023/10/29 12:10:29;;;;;;;;;;;20.00;57.10;;;;;;1590395;73;1160;-78